createdAt,value
2018-07-09T00:00:17.780Z,28.18
2018-07-09T00:02:52.213Z,28.13
2018-07-09T00:05:28.375Z,28.05
2018-07-09T00:08:01.628Z,28.07
2018-07-09T00:10:46.654Z,27.94
2018-07-09T00:13:21.712Z,27.95
2018-07-09T00:15:55.927Z,27.90
2018-07-09T00:18:29.352Z,27.84
2018-07-09T00:21:05.881Z,27.68
2018-07-09T00:23:40.596Z,27.71
2018-07-09T00:26:15.163Z,27.61
2018-07-09T00:28:52.246Z,27.59
2018-07-09T00:31:25.567Z,27.49
2018-07-09T00:34:09.143Z,27.48
2018-07-09T00:36:46.003Z,27.46
2018-07-09T00:39:24.325Z,27.46
2018-07-09T00:41:58.273Z,27.36
2018-07-09T00:44:38.554Z,27.41
2018-07-09T00:47:13.712Z,27.43
2018-07-09T00:49:47.047Z,27.37
2018-07-09T00:52:20.518Z,27.28
2018-07-09T00:54:55.764Z,27.36
2018-07-09T00:57:28.880Z,27.22
2018-07-09T01:00:02.101Z,27.31
2018-07-09T01:02:38.033Z,27.30
2018-07-09T01:05:12.057Z,27.26
2018-07-09T01:07:49.176Z,27.25
2018-07-09T01:10:22.439Z,27.25
2018-07-09T01:12:57.006Z,27.19
2018-07-09T01:15:31.504Z,27.20
2018-07-09T01:18:06.237Z,27.17
2018-07-09T01:20:39.355Z,27.19
2018-07-09T01:23:14.765Z,27.20
2018-07-09T01:25:48.531Z,27.23
2018-07-09T01:28:23.420Z,27.15
2018-07-09T01:30:56.413Z,27.26
2018-07-09T01:33:30.390Z,27.26
2018-07-09T01:36:03.825Z,27.21
2018-07-09T01:38:37.129Z,27.14
2018-07-09T01:41:11.241Z,27.13
2018-07-09T01:43:45.998Z,27.14
2018-07-09T01:46:19.581Z,27.19
2018-07-09T01:48:55.229Z,27.12
2018-07-09T01:51:29.737Z,27.06
2018-07-09T01:54:03.108Z,27.01
2018-07-09T01:56:37.721Z,27.05
2018-07-09T01:59:10.890Z,26.97
2018-07-09T02:01:44.349Z,26.94
2018-07-09T02:04:19.540Z,26.87
2018-07-09T02:06:54.222Z,26.89
2018-07-09T02:09:28.645Z,26.84
2018-07-09T02:12:03.310Z,26.86
2018-07-09T02:14:36.625Z,26.87
2018-07-09T02:17:12.903Z,27.01
2018-07-09T02:19:46.210Z,26.85
2018-07-09T02:22:19.408Z,26.83
2018-07-09T02:24:53.216Z,26.86
2018-07-09T02:27:26.460Z,26.77
2018-07-09T02:29:59.834Z,26.67
2018-07-09T02:32:34.206Z,26.69
2018-07-09T02:35:07.484Z,26.59
2018-07-09T02:37:40.723Z,26.66
2018-07-09T02:40:13.934Z,26.59
2018-07-09T02:42:48.235Z,26.57
2018-07-09T02:45:22.511Z,26.56
2018-07-09T02:47:55.685Z,26.53
2018-07-09T02:50:29.931Z,26.45
2018-07-09T02:53:03.632Z,26.49
2018-07-09T02:55:36.791Z,26.36
2018-07-09T02:58:10.431Z,26.36
2018-07-09T03:00:43.688Z,26.42
2018-07-09T03:03:16.841Z,26.35
2018-07-09T03:05:54.386Z,26.23
2018-07-09T03:08:29.465Z,26.26
2018-07-09T03:11:03.015Z,26.34
2018-07-09T03:13:37.460Z,26.16
2018-07-09T03:16:10.821Z,26.26
2018-07-09T03:18:44.976Z,26.22
2018-07-09T03:21:22.211Z,26.14
2018-07-09T03:23:56.685Z,26.09
2018-07-09T03:26:29.867Z,26.20
2018-07-09T03:29:03.811Z,26.21
2018-07-09T03:31:36.713Z,26.18
2018-07-09T03:34:10.245Z,26.08
2018-07-09T03:36:43.439Z,26.26
2018-07-09T03:39:17.442Z,26.21
2018-07-09T03:41:50.828Z,26.17
2018-07-09T03:44:25.356Z,26.20
2018-07-09T03:47:03.867Z,26.11
2018-07-09T03:49:36.832Z,26.16
2018-07-09T03:52:10.001Z,26.18
2018-07-09T03:54:44.281Z,26.21
2018-07-09T03:57:18.460Z,26.16
2018-07-09T03:59:51.684Z,26.32
2018-07-09T04:02:26.288Z,26.28
2018-07-09T04:04:59.464Z,26.54
2018-07-09T04:07:32.608Z,26.65
2018-07-09T04:10:06.257Z,26.77
2018-07-09T04:12:44.651Z,27.00
2018-07-09T04:15:22.459Z,27.17
2018-07-09T04:17:55.693Z,27.57
2018-07-09T04:20:29.422Z,27.87
2018-07-09T04:23:02.866Z,28.26
2018-07-09T04:25:36.610Z,28.49
2018-07-09T04:28:09.796Z,28.84
2018-07-09T04:30:43.020Z,29.04
2018-07-09T04:33:16.457Z,29.28
2018-07-09T04:35:51.377Z,29.35
2018-07-09T04:38:24.526Z,29.48
2018-07-09T04:40:57.698Z,29.65
2018-07-09T04:43:32.292Z,29.84
2018-07-09T04:46:05.848Z,29.95
2018-07-09T04:48:39.171Z,30.06
2018-07-09T04:51:12.353Z,30.10
2018-07-09T04:53:45.625Z,30.07
2018-07-09T04:56:20.112Z,30.22
2018-07-09T04:58:53.585Z,30.22
2018-07-09T05:01:26.778Z,30.38
2018-07-09T05:04:00.300Z,30.64
2018-07-09T05:09:16.707Z,31.02
2018-07-09T05:11:50.578Z,31.22
2018-07-09T05:14:24.099Z,31.25
2018-07-09T05:16:58.846Z,31.26
2018-07-09T05:19:32.203Z,31.27
2018-07-09T05:22:05.829Z,31.42
2018-07-09T05:24:39.101Z,31.31
2018-07-09T05:27:12.262Z,30.95
2018-07-09T05:29:48.422Z,30.79
2018-07-09T05:32:23.532Z,30.62
2018-07-09T05:35:00.107Z,30.52
2018-07-09T05:37:33.359Z,30.33
2018-07-09T05:40:07.489Z,30.22
2018-07-09T05:42:41.265Z,30.64
2018-07-09T05:45:16.381Z,31.14
2018-07-09T05:47:49.542Z,31.49
2018-07-09T05:50:23.105Z,31.80
2018-07-09T05:52:56.571Z,31.73
2018-07-09T05:55:30.211Z,32.13
2018-07-09T05:58:24.626Z,32.31
2018-07-09T06:00:58.679Z,32.56
2018-07-09T06:03:32.769Z,32.65
2018-07-09T06:06:06.143Z,32.70
2018-07-09T06:08:40.397Z,32.90
2018-07-09T06:11:14.444Z,33.16
2018-07-09T06:13:48.292Z,33.58
2018-07-09T06:16:22.330Z,33.61
2018-07-09T06:18:56.416Z,33.43
2018-07-09T06:21:29.868Z,33.30
2018-07-09T06:24:04.316Z,33.37
2018-07-09T06:26:38.868Z,33.77
2018-07-09T06:29:23.662Z,33.52
2018-07-09T06:32:07.631Z,32.95
2018-07-09T06:34:41.069Z,32.75
2018-07-09T06:37:15.433Z,32.48
2018-07-09T06:39:52.812Z,32.36
2018-07-09T06:42:40.054Z,32.95
2018-07-09T06:47:41.840Z,33.60
2018-07-09T06:50:15.245Z,33.42
2018-07-09T06:52:48.926Z,33.64
2018-07-09T06:55:22.316Z,33.97
2018-07-09T06:57:57.240Z,33.98
2018-07-09T07:00:38.741Z,34.26
2018-07-09T07:03:13.363Z,34.42
2018-07-09T07:05:49.542Z,34.90
2018-07-09T07:11:13.521Z,34.41
2018-07-09T07:13:48.122Z,34.59
2018-07-09T07:16:23.062Z,34.93
2018-07-09T07:18:56.631Z,35.40
2018-07-09T07:21:29.894Z,35.80
2018-07-09T07:24:05.355Z,35.70
2018-07-09T07:26:39.354Z,35.89
2018-07-09T07:29:13.595Z,35.51
2018-07-09T07:31:47.108Z,35.38
2018-07-09T07:34:21.479Z,35.33
2018-07-09T07:36:54.871Z,35.44
2018-07-09T07:39:29.618Z,35.72
2018-07-09T07:42:03.763Z,35.79
2018-07-09T07:44:37.611Z,35.66
2018-07-09T07:47:10.925Z,35.55
2018-07-09T07:49:44.139Z,35.47
2018-07-09T07:52:17.378Z,35.55
2018-07-09T07:54:51.468Z,36.09
2018-07-09T07:57:27.467Z,36.35
2018-07-09T08:00:01.584Z,36.05
2018-07-09T08:02:35.602Z,35.94
2018-07-09T08:07:36.879Z,35.60
2018-07-09T08:10:24.356Z,35.75
2018-07-09T08:13:26.863Z,35.74
2018-07-09T08:15:36.857Z,35.73
2018-07-09T08:18:13.963Z,35.76
2018-07-09T08:20:47.554Z,36.12
2018-07-09T08:23:21.409Z,36.26
2018-07-09T08:25:56.372Z,36.38
2018-07-09T08:28:31.513Z,36.44
2018-07-09T08:31:05.172Z,36.50
2018-07-09T08:33:38.928Z,36.79
2018-07-09T08:36:13.043Z,36.68
2018-07-09T08:39:11.861Z,36.80
2018-07-09T08:42:00.919Z,37.00
2018-07-09T08:44:38.138Z,37.23
2018-07-09T08:47:32.097Z,37.07
2018-07-09T08:50:14.688Z,37.20
2018-07-09T08:52:50.528Z,36.96
2018-07-09T08:57:40.032Z,36.92
2018-07-09T09:00:18.346Z,36.87
2018-07-09T09:02:54.563Z,37.27
2018-07-09T09:05:28.129Z,36.92
2018-07-09T09:08:10.287Z,36.87
2018-07-09T09:10:45.168Z,36.51
2018-07-09T09:13:18.464Z,35.93
2018-07-09T09:15:52.004Z,35.78
2018-07-09T09:18:28.713Z,35.86
2018-07-09T09:21:03.836Z,36.11
2018-07-09T09:23:53.093Z,36.10
2018-07-09T09:31:20.568Z,36.60
2018-07-09T09:33:55.655Z,36.18
2018-07-09T09:36:31.980Z,35.98
2018-07-09T09:39:07.623Z,35.70
2018-07-09T09:41:45.121Z,35.90
2018-07-09T09:44:40.858Z,36.23
2018-07-09T09:51:41.400Z,36.24
2018-07-09T09:54:26.463Z,36.05
2018-07-09T09:57:32.271Z,35.55
2018-07-09T10:00:40.409Z,35.40
2018-07-09T10:03:31.559Z,35.82
2018-07-09T10:31:26.462Z,36.92
2018-07-09T10:40:29.619Z,36.77
2018-07-09T10:43:04.670Z,37.04
2018-07-09T10:50:30.711Z,37.23
2018-07-09T10:53:30.340Z,37.91
2018-07-09T10:56:07.409Z,38.06
2018-07-09T11:01:46.773Z,37.58
2018-07-09T11:04:20.651Z,37.67
2018-07-09T11:06:57.503Z,37.47
2018-07-09T11:09:37.986Z,37.38
2018-07-09T11:12:23.435Z,38.20
2018-07-09T11:14:57.814Z,38.64
2018-07-09T11:17:34.385Z,38.75
2018-07-09T11:20:10.848Z,38.49
2018-07-09T11:22:55.217Z,38.52
2018-07-09T11:25:30.500Z,38.28
2018-07-09T11:28:05.605Z,38.01
2018-07-09T11:30:42.500Z,37.80
2018-07-09T11:33:19.478Z,37.93
2018-07-09T11:35:54.334Z,37.98
2018-07-09T11:38:30.915Z,37.97
2018-07-09T11:41:32.155Z,37.99
2018-07-09T11:47:53.498Z,38.16
2018-07-09T11:50:26.911Z,38.20
2018-07-09T11:53:02.258Z,37.96
2018-07-09T11:55:38.502Z,38.41
2018-07-09T11:58:13.411Z,38.48
2018-07-09T12:00:49.959Z,38.47
2018-07-09T12:03:27.488Z,38.46
2018-07-09T12:06:01.436Z,38.55
2018-07-09T12:08:42.158Z,38.85
2018-07-09T12:11:15.432Z,38.87
2018-07-09T12:13:51.406Z,39.20
2018-07-09T12:16:27.413Z,39.38
2018-07-09T12:19:02.918Z,39.66
2018-07-09T12:21:37.270Z,39.59
2018-07-09T12:24:11.209Z,39.53
2018-07-09T12:26:45.868Z,39.28
2018-07-09T12:29:21.585Z,39.19
2018-07-09T12:31:58.980Z,39.03
2018-07-09T12:34:35.503Z,38.66
2018-07-09T12:37:10.756Z,38.54
2018-07-09T12:39:45.197Z,38.16
2018-07-09T12:43:13.514Z,37.67
2018-07-09T12:45:47.826Z,37.48
2018-07-09T12:51:10.361Z,37.66
2018-07-09T12:54:19.641Z,37.68
2018-07-09T12:56:55.374Z,37.77
2018-07-09T12:59:31.877Z,37.95
2018-07-09T13:02:08.444Z,38.42
2018-07-09T13:04:53.010Z,38.64
2018-07-09T13:07:28.824Z,38.96
2018-07-09T13:11:18.916Z,38.79
2018-07-09T13:13:53.545Z,38.91
2018-07-09T13:16:45.269Z,38.88
2018-07-09T13:22:32.686Z,38.43
2018-07-09T13:30:16.685Z,38.64
2018-07-09T13:32:50.100Z,38.79
2018-07-09T13:35:24.505Z,38.69
2018-07-09T13:37:59.450Z,38.65
2018-07-09T13:40:33.033Z,38.93
2018-07-09T13:43:07.423Z,39.29
2018-07-09T13:45:42.626Z,39.09
2018-07-09T13:48:16.471Z,38.80
2018-07-09T13:50:51.349Z,38.55
2018-07-09T13:53:24.776Z,38.27
2018-07-09T13:56:08.401Z,38.29
2018-07-09T13:58:41.986Z,38.69
2018-07-09T14:01:16.068Z,38.87
2018-07-09T14:03:49.467Z,38.61
2018-07-09T14:06:23.448Z,38.64
2018-07-09T14:09:01.648Z,38.54
2018-07-09T14:11:36.418Z,38.02
2018-07-09T14:14:26.647Z,38.12
2018-07-09T14:17:02.085Z,38.61
2018-07-09T14:20:41.582Z,39.15
2018-07-09T14:23:16.527Z,39.43
2018-07-09T14:25:50.493Z,38.98
2018-07-09T14:28:25.148Z,38.55
2018-07-09T14:31:01.473Z,38.73
2018-07-09T14:33:39.195Z,38.84
2018-07-09T14:36:14.769Z,39.21
2018-07-09T14:38:51.667Z,39.98
2018-07-09T14:41:25.204Z,40.01
2018-07-09T14:44:00.527Z,39.46
2018-07-09T14:46:36.529Z,39.18
2018-07-09T14:49:11.351Z,38.89
2018-07-09T14:51:47.120Z,38.88
2018-07-09T14:54:25.307Z,38.66
2018-07-09T14:57:00.222Z,38.14
2018-07-09T14:59:35.070Z,38.09
2018-07-09T15:02:09.198Z,37.97
2018-07-09T15:04:42.496Z,37.49
2018-07-09T15:07:17.307Z,37.23
2018-07-09T15:09:55.582Z,37.15
2018-07-09T15:12:30.765Z,37.10
2018-07-09T15:15:08.184Z,36.85
2018-07-09T15:17:41.892Z,36.66
2018-07-09T15:20:17.476Z,36.80
2018-07-09T15:22:51.561Z,37.26
2018-07-09T15:25:26.180Z,37.87
2018-07-09T15:28:00.250Z,38.64
2018-07-09T15:31:05.464Z,39.02
2018-07-09T15:33:41.710Z,38.78
2018-07-09T15:36:16.653Z,38.07
2018-07-09T15:38:51.618Z,37.75
2018-07-09T15:41:25.821Z,37.43
2018-07-09T15:44:02.295Z,37.34
2018-07-09T15:46:36.030Z,37.13
2018-07-09T15:49:12.323Z,36.78
2018-07-09T15:51:46.630Z,36.55
2018-07-09T15:54:25.607Z,36.40
2018-07-09T15:57:01.772Z,36.26
2018-07-09T15:59:37.997Z,36.41
2018-07-09T16:02:11.986Z,36.77
2018-07-09T16:04:51.023Z,37.12
2018-07-09T16:07:28.121Z,37.47
2018-07-09T16:10:12.037Z,37.40
2018-07-09T16:12:47.224Z,37.30
2018-07-09T16:15:23.362Z,37.16
2018-07-09T16:17:57.825Z,37.03
2018-07-09T16:21:01.859Z,36.86
2018-07-09T16:23:35.217Z,36.59
2018-07-09T16:26:11.655Z,36.41
2018-07-09T16:32:31.802Z,36.56
2018-07-09T16:35:10.394Z,36.37
2018-07-09T16:39:53.243Z,36.06
2018-07-09T16:42:29.873Z,35.48
2018-07-09T16:45:08.557Z,35.27
2018-07-09T16:47:43.093Z,34.94
2018-07-09T16:50:17.462Z,34.89
2018-07-09T16:52:52.487Z,34.89
2018-07-09T16:55:25.518Z,35.00
2018-07-09T16:58:01.543Z,34.89
2018-07-09T17:00:35.687Z,34.79
2018-07-09T17:03:10.668Z,34.49
2018-07-09T17:05:45.265Z,34.21
2018-07-09T17:08:19.949Z,34.19
2018-07-09T17:10:53.913Z,34.22
2018-07-09T17:13:33.145Z,34.22
2018-07-09T17:16:07.210Z,34.16
2018-07-09T17:18:42.481Z,34.03
2018-07-09T17:21:23.255Z,33.95
2018-07-09T17:23:58.900Z,33.84
2018-07-09T17:26:35.562Z,33.94
2018-07-09T17:29:09.436Z,33.90
2018-07-09T17:31:49.761Z,34.21
2018-07-09T17:34:23.709Z,34.22
2018-07-09T17:36:58.625Z,34.19
2018-07-09T17:39:32.234Z,34.13
2018-07-09T17:42:07.461Z,34.15
2018-07-09T17:44:42.650Z,33.97
2018-07-09T17:47:17.177Z,33.87
2018-07-09T17:49:53.578Z,33.64
2018-07-09T17:52:29.858Z,33.42
2018-07-09T17:55:02.757Z,33.41
2018-07-09T17:57:39.322Z,33.35
2018-07-09T18:00:14.553Z,33.27
2018-07-09T18:02:53.035Z,33.19
2018-07-09T18:05:29.318Z,33.37
2018-07-09T18:08:10.455Z,33.26
2018-07-09T18:10:47.744Z,33.26
2018-07-09T18:13:22.589Z,33.19
2018-07-09T18:15:56.370Z,33.06
2018-07-09T18:18:37.635Z,33.05
2018-07-09T18:21:15.477Z,32.90
2018-07-09T18:23:55.377Z,32.81
2018-07-09T18:26:30.124Z,32.91
2018-07-09T18:29:13.428Z,32.75
2018-07-09T18:31:54.904Z,32.77
2018-07-09T18:34:32.084Z,32.71
2018-07-09T18:37:08.221Z,32.65
2018-07-09T18:39:43.342Z,32.67
2018-07-09T18:42:17.063Z,32.76
2018-07-09T18:44:52.980Z,32.71
2018-07-09T18:47:30.720Z,32.59
2018-07-09T18:50:03.811Z,32.45
2018-07-09T18:52:39.249Z,32.42
2018-07-09T18:55:15.773Z,32.52
2018-07-09T18:57:51.657Z,32.51
2018-07-09T19:00:32.435Z,32.40
2018-07-09T19:03:08.593Z,32.23
2018-07-09T19:05:52.419Z,32.10
2018-07-09T19:08:30.411Z,31.85
2018-07-09T19:11:06.534Z,31.71
2018-07-09T19:13:42.541Z,31.58
2018-07-09T19:16:20.215Z,31.61
2018-07-09T19:19:06.261Z,31.56
2018-07-09T19:21:52.211Z,31.32
2018-07-09T19:24:28.529Z,31.24
2018-07-09T19:27:01.678Z,31.01
2018-07-09T19:29:35.152Z,31.05
2018-07-09T19:32:07.922Z,31.05
2018-07-09T19:37:19.905Z,31.10
2018-07-09T19:39:52.254Z,31.03
2018-07-09T19:42:25.026Z,31.02
2018-07-09T19:44:58.497Z,31.03
2018-07-09T19:47:30.323Z,30.90
2018-07-09T19:50:06.244Z,30.75
2018-07-09T19:52:39.609Z,30.89
2018-07-09T19:55:20.618Z,30.82
2018-07-09T19:57:53.428Z,30.77
2018-07-09T20:00:30.337Z,30.80
2018-07-09T20:03:02.845Z,30.74
2018-07-09T20:05:36.197Z,30.72
2018-07-09T20:08:10.366Z,30.67
2018-07-09T20:13:51.633Z,30.44
2018-07-09T20:17:30.021Z,30.39
2018-07-09T20:20:01.860Z,30.34
2018-07-09T20:22:34.337Z,30.18
2018-07-09T20:25:12.565Z,30.21
2018-07-09T20:27:44.438Z,30.26
2018-07-09T20:30:21.081Z,30.30
2018-07-09T20:32:53.599Z,30.30
2018-07-09T20:35:25.580Z,30.33
2018-07-09T20:37:58.365Z,30.41
2018-07-09T20:40:31.357Z,30.46
2018-07-09T20:43:03.772Z,30.52
2018-07-09T20:45:37.224Z,30.54
2018-07-09T20:48:10.341Z,30.55
2018-07-09T20:50:43.185Z,30.04
2018-07-09T20:53:16.154Z,30.58
2018-07-09T20:55:49.083Z,30.65
2018-07-09T20:58:23.991Z,30.64
2018-07-09T21:00:55.537Z,30.62
2018-07-09T21:03:31.047Z,30.01
2018-07-09T21:06:04.029Z,30.61
2018-07-09T21:08:37.350Z,30.52
2018-07-09T21:11:10.506Z,30.53
2018-07-09T21:13:42.149Z,30.52
2018-07-09T21:16:18.652Z,30.62
2018-07-09T21:18:50.816Z,30.62
2018-07-09T21:21:32.999Z,30.58
2018-07-09T21:24:05.218Z,30.59
2018-07-09T21:26:39.272Z,30.59
2018-07-09T21:29:17.481Z,30.64
2018-07-09T21:31:52.377Z,30.59
2018-07-09T21:34:25.069Z,30.53
2018-07-09T21:36:56.634Z,30.61
2018-07-09T21:39:30.768Z,30.63
2018-07-09T21:42:02.555Z,30.73
2018-07-09T21:44:35.358Z,30.85
2018-07-09T21:47:07.757Z,30.68
2018-07-09T21:49:39.400Z,30.61
2018-07-09T21:52:13.852Z,30.70
2018-07-09T21:54:48.471Z,30.76
2018-07-09T21:57:22.378Z,30.74
2018-07-09T21:59:55.919Z,30.70
2018-07-09T22:02:28.142Z,30.85
2018-07-09T22:05:00.738Z,30.78
2018-07-09T22:07:33.239Z,30.64
2018-07-09T22:10:05.090Z,30.48
2018-07-09T22:12:38.287Z,30.53
2018-07-09T22:15:13.488Z,30.46
2018-07-09T22:17:45.694Z,30.34
2018-07-09T22:20:17.627Z,30.27
2018-07-09T22:22:49.388Z,30.16
2018-07-09T22:25:21.058Z,30.08
2018-07-09T22:27:53.591Z,30.44
2018-07-09T22:30:32.104Z,30.45
2018-07-09T22:33:09.520Z,30.20
2018-07-09T22:35:43.467Z,30.24
2018-07-09T22:38:17.974Z,30.06
2018-07-09T22:40:53.158Z,29.96
2018-07-09T22:43:37.377Z,30.08
2018-07-09T22:46:12.559Z,30.01
2018-07-09T22:48:46.110Z,30.10
2018-07-09T22:51:19.227Z,30.29
2018-07-09T22:53:53.100Z,30.24
2018-07-09T22:56:28.968Z,30.19
2018-07-09T22:59:01.954Z,30.26
2018-07-09T23:01:35.312Z,30.18
2018-07-09T23:04:08.497Z,30.02
2018-07-09T23:06:43.280Z,30.14
2018-07-09T23:10:24.299Z,30.20
2018-07-09T23:13:21.766Z,30.09
2018-07-09T23:16:04.272Z,29.98
2018-07-09T23:20:56.773Z,30.09
2018-07-09T23:23:28.527Z,29.83
2018-07-09T23:26:02.027Z,30.14
2018-07-09T23:28:33.458Z,30.15
2018-07-09T23:31:04.785Z,29.85
2018-07-09T23:33:36.258Z,29.54
2018-07-09T23:36:09.411Z,29.73
2018-07-09T23:38:42.390Z,29.55
2018-07-09T23:41:12.575Z,29.57
2018-07-09T23:43:43.532Z,29.67
2018-07-09T23:46:13.542Z,29.80
2018-07-09T23:48:43.450Z,29.85
2018-07-09T23:51:13.206Z,29.61
2018-07-09T23:53:47.995Z,29.63
2018-07-09T23:58:34.464Z,29.65
